createdAt,value
2019-04-21T00:03:36.000Z,23.3
2019-04-21T00:13:36.000Z,23.26
2019-04-21T00:23:36.000Z,23.24
2019-04-21T00:33:40.000Z,23.22
2019-04-21T00:43:36.000Z,23.16
2019-04-21T00:53:37.000Z,23.12
2019-04-21T01:03:36.000Z,23.08
2019-04-21T01:13:36.000Z,23.05
2019-04-21T01:23:38.000Z,23.02
2019-04-21T01:33:36.000Z,22.98
2019-04-21T01:53:36.000Z,22.89
2019-04-21T02:03:36.000Z,22.88
2019-04-21T02:13:36.000Z,22.82
2019-04-21T02:23:37.000Z,22.79
2019-04-21T02:33:36.000Z,22.76
2019-04-21T03:03:36.000Z,22.7
2019-04-21T03:13:36.000Z,22.64
2019-04-21T03:23:37.000Z,22.58
2019-04-21T03:43:36.000Z,22.53
2019-04-21T04:03:37.000Z,22.42
2019-04-21T04:13:39.000Z,22.39
2019-04-21T04:43:37.000Z,22.33
2019-04-21T04:53:39.000Z,22.3
2019-04-21T05:03:37.000Z,22.29
2019-04-21T05:23:37.000Z,22.23
2019-04-21T05:33:37.000Z,22.22
2019-04-21T05:43:37.000Z,22.3
2019-04-21T05:53:39.000Z,22.39
2019-04-21T06:03:40.000Z,22.39
2019-04-21T06:13:37.000Z,22.45
2019-04-21T06:23:37.000Z,22.48
2019-04-21T06:33:37.000Z,22.49
2019-04-21T06:43:39.000Z,22.52
2019-04-21T06:53:37.000Z,22.47
2019-04-21T07:03:37.000Z,22.54
2019-04-21T07:13:37.000Z,22.52
2019-04-21T07:33:37.000Z,22.38
2019-04-21T07:43:38.000Z,22.52
2019-04-21T07:53:39.000Z,22.61
2019-04-21T08:13:37.000Z,22.72
2019-04-21T08:23:38.000Z,22.82
2019-04-21T08:33:38.000Z,22.89
2019-04-21T08:43:38.000Z,23
2019-04-21T09:13:37.000Z,23.35
2019-04-21T09:23:37.000Z,23.47
2019-04-21T09:33:37.000Z,23.58
2019-04-21T09:43:37.000Z,23.85
2019-04-21T09:53:38.000Z,23.89
2019-04-21T10:03:37.000Z,24.49
2019-04-21T10:13:37.000Z,24.45
2019-04-21T10:23:37.000Z,24.45
2019-04-21T10:33:37.000Z,24.5
2019-04-21T10:43:37.000Z,24.62
2019-04-21T10:53:41.000Z,24.67
2019-04-21T11:03:39.000Z,24.79
2019-04-21T11:13:37.000Z,24.86
2019-04-21T11:23:37.000Z,24.93
2019-04-21T11:33:37.000Z,25.01
2019-04-21T11:43:37.000Z,25.02
2019-04-21T11:53:37.000Z,25.07
2019-04-21T12:03:37.000Z,25.11
2019-04-21T12:13:38.000Z,25.1
2019-04-21T12:23:40.000Z,25.12
2019-04-21T12:33:40.000Z,25.12
2019-04-21T12:43:38.000Z,25.1
2019-04-21T12:53:38.000Z,25.1
2019-04-21T13:03:38.000Z,25.09
2019-04-21T13:13:38.000Z,25.06
2019-04-21T13:23:38.000Z,25.04
2019-04-21T13:43:40.000Z,25.02
2019-04-21T13:53:38.000Z,24.98
2019-04-21T14:03:38.000Z,24.94
2019-04-21T14:13:38.000Z,24.92
2019-04-21T14:23:38.000Z,24.89
2019-04-21T14:33:41.000Z,24.86
2019-04-21T14:43:39.000Z,24.86
2019-04-21T14:53:38.000Z,24.82
2019-04-21T15:03:38.000Z,24.8
2019-04-21T15:23:38.000Z,24.76
2019-04-21T15:33:38.000Z,24.74
2019-04-21T15:43:38.000Z,24.71
2019-04-21T16:03:38.000Z,24.68
2019-04-21T16:13:38.000Z,24.66
2019-04-21T16:23:38.000Z,24.63
2019-04-21T16:33:38.000Z,24.64
2019-04-21T16:53:38.000Z,24.64
2019-04-21T17:03:38.000Z,24.66
2019-04-21T17:13:38.000Z,24.63
2019-04-21T17:23:38.000Z,24.61
2019-04-21T17:33:40.000Z,24.59
2019-04-21T17:43:38.000Z,24.57
2019-04-21T17:53:38.000Z,24.52
2019-04-21T18:03:38.000Z,24.45
2019-04-21T18:13:38.000Z,24.22
2019-04-21T18:23:38.000Z,24.28
2019-04-21T18:33:42.000Z,24.35
2019-04-21T18:43:38.000Z,24.22
2019-04-21T18:53:40.000Z,24.14
2019-04-21T19:03:39.000Z,24.18
2019-04-21T19:13:39.000Z,24.21
2019-04-21T19:33:38.000Z,24.28
2019-04-21T19:43:38.000Z,24.3
2019-04-21T19:53:42.000Z,24.3
2019-04-21T20:03:42.000Z,24.33
2019-04-21T20:23:39.000Z,24.38
2019-04-21T20:33:39.000Z,24.37
2019-04-21T20:53:39.000Z,24.36
2019-04-21T21:03:39.000Z,24.32
2019-04-21T21:13:39.000Z,24.36
2019-04-21T21:23:39.000Z,24.32
2019-04-21T21:33:39.000Z,24.31
2019-04-21T21:43:39.000Z,24.3
2019-04-21T22:03:39.000Z,24.28
2019-04-21T22:13:39.000Z,24.22
2019-04-21T22:23:39.000Z,24.21
2019-04-21T22:33:39.000Z,24.19
2019-04-21T22:43:40.000Z,24.18
2019-04-21T22:53:39.000Z,24.12
2019-04-21T23:13:39.000Z,24.21
2019-04-21T23:23:39.000Z,24.1
2019-04-21T23:33:39.000Z,24.09
2019-04-21T23:43:39.000Z,24.09
2019-04-21T23:53:39.000Z,24.04
